U S A F Academy, Colorado
Current Conditions -  °F | °C
As of 3:56 AM on Saturday 20 Dec 2014 (Local Time) from KSHM Reporting Station
Clear Clear  
Wind Chill: 25°   Ceiling: Unl
Heat Index: 25°   Visibility: 10mi
Dew Point: 18°   Wind: 2mph
Humidity: 75%   Direction: 270°W
Pressure: 30.03"   Gusts: NA
Location:  38.8247°N, 104.562°W
Report Text: KSHM 201056Z AUTO 27002KT 10SM CLR M04/M08 A3003 RMK AO2 SLP199 T10411080
Loading
Personal Weather Stations






























Interactive Weather Map New forecast layout! Learn more

10-Day Weather Forecast

Advertisements
Track Severe Weather on mobile